Date,TemperatureHighF,TemperatureAvgF,TemperatureLowF,DewpointHighF,DewpointAvgF,DewpointLowF,HumidityHigh,HumidityAvg,HumidityLow,PressureMaxIn,PressureMinIn,WindSpeedMaxMPH,WindSpeedAvgMPH,GustSpeedMaxMPH,PrecipitationSumIn
2013-2-1,72,57,46,-100,-100,-100,0,0,100,0.00,40.00,0,-999,0,0.00
2013-2-2,73,57,47,-100,-100,-100,0,0,100,0.00,40.00,0,-999,0,0.00
2013-2-3,74,58,51,-100,-100,-100,0,0,100,0.00,40.00,0,-999,0,0.00
2013-2-4,69,60,51,-100,-100,-100,0,0,100,0.00,40.00,0,-999,0,0.00
2013-2-5,78,68,62,-100,-100,-100,0,0,100,0.00,40.00,0,-999,0,0.00
2013-2-6,66,63,62,-100,-100,-100,0,0,100,0.00,40.00,0,-999,0,0.00
2013-2-7,69,63,58,-100,-100,-100,0,0,100,0.00,40.00,0,-999,0,0.00
2013-2-8,71,62,55,-100,-100,-100,0,0,100,0.00,40.00,0,-999,0,0.00
2013-2-9,66,59,50,-100,-100,-100,0,0,100,0.00,40.00,0,-999,0,0.00
2013-2-10,76,68,64,-100,-100,-100,0,0,100,0.00,40.00,0,-999,0,0.00
2013-2-11,65,57,53,-100,-100,-100,0,0,100,0.00,40.00,0,-999,0,0.00
2013-2-12,69,61,54,-100,-100,-100,0,0,100,0.00,40.00,0,-999,0,0.00
2013-2-13,67,53,47,-100,-100,-100,0,0,100,0.00,40.00,0,-999,0,0.00
2013-2-14,73,54,40,-100,-100,-100,0,0,100,0.00,40.00,0,-999,0,0.00
2013-2-15,75,53,40,-100,-100,-100,0,0,100,0.00,40.00,0,-999,0,0.00
2013-2-16,64,50,40,-100,-100,-100,0,0,100,0.00,40.00,0,-999,0,0.00
2013-2-17,72,54,40,-100,-100,-100,0,0,100,0.00,40.00,0,-999,0,0.00
2013-2-18,73,68,60,-100,-100,-100,0,0,100,0.00,40.00,0,-999,0,0.00
2013-2-19,73,57,49,-100,-100,-100,0,0,100,0.00,40.00,0,-999,0,0.00
2013-2-20,59,54,51,-100,-100,-100,0,0,100,0.00,40.00,0,-999,0,0.00
2013-2-21,74,65,58,-100,-100,-100,0,0,100,0.00,40.00,0,-999,0,0.00
2013-2-22,69,62,58,-100,-100,-100,0,0,100,0.00,40.00,0,-999,0,0.00
2013-2-23,73,60,51,-100,-100,-100,0,0,100,0.00,40.00,0,-999,0,0.00
2013-2-24,72,60,45,-100,-100,-100,0,0,100,0.00,40.00,0,-999,0,0.00
2013-2-25,76,67,51,-100,-100,-100,0,0,100,0.00,40.00,0,-999,0,0.00
2013-2-26,65,54,45,-100,-100,-100,0,0,100,0.00,40.00,0,-999,0,0.00
2013-2-27,74,57,45,-100,-100,-100,0,0,100,0.00,40.00,0,-999,0,0.00
2013-2-28,58,50,43,-100,-100,-100,0,0,100,0.00,40.00,0,-999,0,0.00